sensor_id;sensor_type;location;lat;lon;timestamp;temperature;humidity
39847;DHT22;25517;52.422;10.782;2022-11-15T00:02:18;8.00;99.90
39847;DHT22;25517;52.422;10.782;2022-11-15T00:04:43;8.00;99.90
39847;DHT22;25517;52.422;10.782;2022-11-15T00:07:09;7.90;99.90
39847;DHT22;25517;52.422;10.782;2022-11-15T00:09:34;7.90;99.90
39847;DHT22;25517;52.422;10.782;2022-11-15T00:12:00;7.90;99.90
39847;DHT22;25517;52.422;10.782;2022-11-15T00:14:28;7.80;99.90
39847;DHT22;25517;52.422;10.782;2022-11-15T00:16:54;7.80;99.90
39847;DHT22;25517;52.422;10.782;2022-11-15T00:19:23;7.70;99.90
39847;DHT22;25517;52.422;10.782;2022-11-15T00:21:52;7.70;99.90
39847;DHT22;25517;52.422;10.782;2022-11-15T00:24:18;7.70;99.90
39847;DHT22;25517;52.422;10.782;2022-11-15T00:26:44;7.70;99.90
39847;DHT22;25517;52.422;10.782;2022-11-15T00:29:10;7.70;99.90
39847;DHT22;25517;52.422;10.782;2022-11-15T00:31:35;7.70;99.90
39847;DHT22;25517;52.422;10.782;2022-11-15T00:34:00;7.70;99.90
39847;DHT22;25517;52.422;10.782;2022-11-15T00:36:26;7.60;99.90
39847;DHT22;25517;52.422;10.782;2022-11-15T00:38:52;7.60;99.90
39847;DHT22;25517;52.422;10.782;2022-11-15T00:41:24;7.60;99.90
39847;DHT22;25517;52.422;10.782;2022-11-15T00:43:50;7.60;99.90
39847;DHT22;25517;52.422;10.782;2022-11-15T00:46:16;7.50;99.90
39847;DHT22;25517;52.422;10.782;2022-11-15T00:48:45;7.50;99.90
39847;DHT22;25517;52.422;10.782;2022-11-15T00:51:11;7.40;99.90
39847;DHT22;25517;52.422;10.782;2022-11-15T00:53:37;7.40;99.90
39847;DHT22;25517;52.422;10.782;2022-11-15T00:56:03;7.40;99.90
39847;DHT22;25517;52.422;10.782;2022-11-15T00:58:29;7.40;99.90
39847;DHT22;25517;52.422;10.782;2022-11-15T01:00:54;7.40;99.90
39847;DHT22;25517;52.422;10.782;2022-11-15T01:03:20;7.40;99.90
39847;DHT22;25517;52.422;10.782;2022-11-15T01:05:46;7.40;99.90
39847;DHT22;25517;52.422;10.782;2022-11-15T01:08:13;7.30;99.90
39847;DHT22;25517;52.422;10.782;2022-11-15T01:10:39;7.30;99.90
39847;DHT22;25517;52.422;10.782;2022-11-15T01:13:04;7.30;99.90
39847;DHT22;25517;52.422;10.782;2022-11-15T01:15:30;7.30;99.90
39847;DHT22;25517;52.422;10.782;2022-11-15T01:17:55;7.20;99.90
39847;DHT22;25517;52.422;10.782;2022-11-15T01:20:21;7.20;99.90
39847;DHT22;25517;52.422;10.782;2022-11-15T01:22:46;7.20;99.90
39847;DHT22;25517;52.422;10.782;2022-11-15T01:25:12;7.20;99.90
39847;DHT22;25517;52.422;10.782;2022-11-15T01:27:37;7.10;99.90
39847;DHT22;25517;52.422;10.782;2022-11-15T01:30:03;7.10;99.90
39847;DHT22;25517;52.422;10.782;2022-11-15T01:32:29;7.10;99.90
39847;DHT22;25517;52.422;10.782;2022-11-15T01:34:55;7.10;99.90
39847;DHT22;25517;52.422;10.782;2022-11-15T01:37:20;7.10;99.90
39847;DHT22;25517;52.422;10.782;2022-11-15T01:39:45;7.10;99.90
39847;DHT22;25517;52.422;10.782;2022-11-15T01:42:14;7.10;99.90
39847;DHT22;25517;52.422;10.782;2022-11-15T01:47:31;7.10;99.90
39847;DHT22;25517;52.422;10.782;2022-11-15T01:50:02;7.10;99.90
39847;DHT22;25517;52.422;10.782;2022-11-15T01:52:31;7.00;99.90
39847;DHT22;25517;52.422;10.782;2022-11-15T01:57:40;7.00;99.90
39847;DHT22;25517;52.422;10.782;2022-11-15T02:00:08;6.90;99.90
39847;DHT22;25517;52.422;10.782;2022-11-15T02:02:36;6.90;99.90
39847;DHT22;25517;52.422;10.782;2022-11-15T02:05:02;6.90;99.90
39847;DHT22;25517;52.422;10.782;2022-11-15T02:07:28;6.80;99.90
39847;DHT22;25517;52.422;10.782;2022-11-15T02:09:55;6.80;99.90
39847;DHT22;25517;52.422;10.782;2022-11-15T02:12:21;6.70;99.90
39847;DHT22;25517;52.422;10.782;2022-11-15T02:14:52;6.60;99.90
39847;DHT22;25517;52.422;10.782;2022-11-15T02:17:48;6.50;99.90
39847;DHT22;25517;52.422;10.782;2022-11-15T02:33:52;6.60;99.90
39847;DHT22;25517;52.422;10.782;2022-11-15T02:39:41;6.60;99.90
39847;DHT22;25517;52.422;10.782;2022-11-15T02:42:26;6.50;99.90
39847;DHT22;25517;52.422;10.782;2022-11-15T02:45:33;6.50;99.90
39847;DHT22;25517;52.422;10.782;2022-11-15T02:48:01;6.50;99.90
39847;DHT22;25517;52.422;10.782;2022-11-15T02:50:29;6.50;99.90
39847;DHT22;25517;52.422;10.782;2022-11-15T02:52:56;6.50;99.90
39847;DHT22;25517;52.422;10.782;2022-11-15T02:55:41;6.50;99.90
39847;DHT22;25517;52.422;10.782;2022-11-15T02:58:22;6.40;99.90
39847;DHT22;25517;52.422;10.782;2022-11-15T03:06:52;6.30;99.90
39847;DHT22;25517;52.422;10.782;2022-11-15T03:09:35;6.20;99.90
39847;DHT22;25517;52.422;10.782;2022-11-15T03:12:15;6.20;99.90
39847;DHT22;25517;52.422;10.782;2022-11-15T03:14:56;6.10;99.90
39847;DHT22;25517;52.422;10.782;2022-11-15T03:17:28;6.10;99.90
39847;DHT22;25517;52.422;10.782;2022-11-15T03:19:58;6.00;99.90
39847;DHT22;25517;52.422;10.782;2022-11-15T03:22:27;6.00;99.90
39847;DHT22;25517;52.422;10.782;2022-11-15T03:25:00;5.90;99.90
39847;DHT22;25517;52.422;10.782;2022-11-15T03:27:31;5.90;99.90
39847;DHT22;25517;52.422;10.782;2022-11-15T03:30:02;5.90;99.90
39847;DHT22;25517;52.422;10.782;2022-11-15T03:32:32;5.90;99.90
39847;DHT22;25517;52.422;10.782;2022-11-15T03:35:14;5.80;99.90
39847;DHT22;25517;52.422;10.782;2022-11-15T03:37:53;5.80;99.90
39847;DHT22;25517;52.422;10.782;2022-11-15T03:40:37;5.80;99.90
39847;DHT22;25517;52.422;10.782;2022-11-15T03:46:01;5.80;99.90
39847;DHT22;25517;52.422;10.782;2022-11-15T03:48:51;5.80;99.90
39847;DHT22;25517;52.422;10.782;2022-11-15T03:51:19;5.70;99.90
39847;DHT22;25517;52.422;10.782;2022-11-15T03:53:46;5.70;99.90
39847;DHT22;25517;52.422;10.782;2022-11-15T03:56:11;5.70;99.90
39847;DHT22;25517;52.422;10.782;2022-11-15T03:58:37;5.70;99.90
39847;DHT22;25517;52.422;10.782;2022-11-15T04:01:03;5.70;99.90
39847;DHT22;25517;52.422;10.782;2022-11-15T04:03:29;5.70;99.90
39847;DHT22;25517;52.422;10.782;2022-11-15T04:05:55;5.60;99.90
39847;DHT22;25517;52.422;10.782;2022-11-15T04:08:21;5.70;99.90
39847;DHT22;25517;52.422;10.782;2022-11-15T04:10:51;5.60;99.90
39847;DHT22;25517;52.422;10.782;2022-11-15T04:13:17;5.70;99.90
39847;DHT22;25517;52.422;10.782;2022-11-15T04:15:43;5.70;99.90
39847;DHT22;25517;52.422;10.782;2022-11-15T04:18:08;5.70;99.90
39847;DHT22;25517;52.422;10.782;2022-11-15T04:20:34;5.70;99.90
39847;DHT22;25517;52.422;10.782;2022-11-15T04:23:22;5.60;99.90
39847;DHT22;25517;52.422;10.782;2022-11-15T04:26:11;5.60;99.90
39847;DHT22;25517;52.422;10.782;2022-11-15T04:28:37;5.50;99.90
39847;DHT22;25517;52.422;10.782;2022-11-15T04:31:26;5.50;99.90
39847;DHT22;25517;52.422;10.782;2022-11-15T04:33:53;5.40;99.90
39847;DHT22;25517;52.422;10.782;2022-11-15T04:36:19;5.40;99.90
39847;DHT22;25517;52.422;10.782;2022-11-15T04:39:03;5.40;99.90
39847;DHT22;25517;52.422;10.782;2022-11-15T04:41:29;5.40;99.90
39847;DHT22;25517;52.422;10.782;2022-11-15T04:43:55;5.40;99.90
39847;DHT22;25517;52.422;10.782;2022-11-15T04:46:22;5.40;99.90
39847;DHT22;25517;52.422;10.782;2022-11-15T04:48:49;5.40;99.90
39847;DHT22;25517;52.422;10.782;2022-11-15T04:51:15;5.40;99.90
39847;DHT22;25517;52.422;10.782;2022-11-15T04:53:41;5.30;99.90
39847;DHT22;25517;52.422;10.782;2022-11-15T04:56:07;5.40;99.90
39847;DHT22;25517;52.422;10.782;2022-11-15T04:58:32;5.40;99.90
39847;DHT22;25517;52.422;10.782;2022-11-15T05:00:58;5.30;99.90
39847;DHT22;25517;52.422;10.782;2022-11-15T05:03:23;5.30;99.90
39847;DHT22;25517;52.422;10.782;2022-11-15T05:06:07;5.30;99.90
39847;DHT22;25517;52.422;10.782;2022-11-15T05:08:33;5.30;99.90
39847;DHT22;25517;52.422;10.782;2022-11-15T05:10:59;5.30;99.90
39847;DHT22;25517;52.422;10.782;2022-11-15T05:13:25;5.40;99.90
39847;DHT22;25517;52.422;10.782;2022-11-15T05:15:50;5.40;99.90
39847;DHT22;25517;52.422;10.782;2022-11-15T05:18:16;5.40;99.90
39847;DHT22;25517;52.422;10.782;2022-11-15T05:20:42;5.50;99.90
39847;DHT22;25517;52.422;10.782;2022-11-15T05:23:08;5.60;99.90
39847;DHT22;25517;52.422;10.782;2022-11-15T05:25:36;5.60;99.90
39847;DHT22;25517;52.422;10.782;2022-11-15T05:28:02;5.60;99.90
39847;DHT22;25517;52.422;10.782;2022-11-15T05:30:27;5.60;99.90
39847;DHT22;25517;52.422;10.782;2022-11-15T05:32:53;5.70;99.90
39847;DHT22;25517;52.422;10.782;2022-11-15T05:35:27;5.70;99.90
39847;DHT22;25517;52.422;10.782;2022-11-15T05:37:55;5.70;99.90
39847;DHT22;25517;52.422;10.782;2022-11-15T05:40:20;5.70;99.90
39847;DHT22;25517;52.422;10.782;2022-11-15T05:42:46;5.70;99.90
39847;DHT22;25517;52.422;10.782;2022-11-15T05:45:12;5.70;99.90
39847;DHT22;25517;52.422;10.782;2022-11-15T05:47:39;5.70;99.90
39847;DHT22;25517;52.422;10.782;2022-11-15T05:50:05;5.70;99.90
39847;DHT22;25517;52.422;10.782;2022-11-15T05:52:34;5.70;99.90
39847;DHT22;25517;52.422;10.782;2022-11-15T05:55:02;5.70;99.90
39847;DHT22;25517;52.422;10.782;2022-11-15T05:57:28;5.70;99.90
39847;DHT22;25517;52.422;10.782;2022-11-15T05:59:54;5.70;99.90
39847;DHT22;25517;52.422;10.782;2022-11-15T06:02:20;5.60;99.90
39847;DHT22;25517;52.422;10.782;2022-11-15T06:04:46;5.60;99.90
39847;DHT22;25517;52.422;10.782;2022-11-15T06:07:12;5.60;99.90
39847;DHT22;25517;52.422;10.782;2022-11-15T06:09:38;5.70;99.90
39847;DHT22;25517;52.422;10.782;2022-11-15T06:12:04;5.70;99.90
39847;DHT22;25517;52.422;10.782;2022-11-15T06:14:32;5.80;99.90
39847;DHT22;25517;52.422;10.782;2022-11-15T06:16:58;5.90;99.90
39847;DHT22;25517;52.422;10.782;2022-11-15T06:19:24;5.90;99.90
39847;DHT22;25517;52.422;10.782;2022-11-15T06:21:49;6.10;99.90
39847;DHT22;25517;52.422;10.782;2022-11-15T06:24:14;6.20;99.90
39847;DHT22;25517;52.422;10.782;2022-11-15T06:26:40;6.20;99.90
39847;DHT22;25517;52.422;10.782;2022-11-15T06:29:07;6.30;99.90
39847;DHT22;25517;52.422;10.782;2022-11-15T06:31:34;6.30;99.90
39847;DHT22;25517;52.422;10.782;2022-11-15T06:34:05;6.20;99.90
39847;DHT22;25517;52.422;10.782;2022-11-15T06:36:31;6.10;99.90
39847;DHT22;25517;52.422;10.782;2022-11-15T06:38:59;6.00;99.90
39847;DHT22;25517;52.422;10.782;2022-11-15T06:41:27;6.00;99.90
39847;DHT22;25517;52.422;10.782;2022-11-15T06:43:56;5.90;99.90
39847;DHT22;25517;52.422;10.782;2022-11-15T06:46:22;5.90;99.90
39847;DHT22;25517;52.422;10.782;2022-11-15T06:48:49;5.90;99.90
39847;DHT22;25517;52.422;10.782;2022-11-15T06:51:17;5.90;99.90
39847;DHT22;25517;52.422;10.782;2022-11-15T06:53:44;5.90;99.90
39847;DHT22;25517;52.422;10.782;2022-11-15T06:56:10;6.00;99.90
39847;DHT22;25517;52.422;10.782;2022-11-15T06:58:38;6.00;99.90
39847;DHT22;25517;52.422;10.782;2022-11-15T07:01:09;6.00;99.90
39847;DHT22;25517;52.422;10.782;2022-11-15T07:03:38;6.10;99.90
39847;DHT22;25517;52.422;10.782;2022-11-15T07:06:04;6.10;99.90
39847;DHT22;25517;52.422;10.782;2022-11-15T07:08:30;6.20;99.90
39847;DHT22;25517;52.422;10.782;2022-11-15T07:11:00;6.20;99.90
39847;DHT22;25517;52.422;10.782;2022-11-15T07:13:28;6.30;99.90
39847;DHT22;25517;52.422;10.782;2022-11-15T07:15:55;6.40;99.90
39847;DHT22;25517;52.422;10.782;2022-11-15T07:18:20;6.50;99.90
39847;DHT22;25517;52.422;10.782;2022-11-15T07:20:46;6.60;99.90
39847;DHT22;25517;52.422;10.782;2022-11-15T07:23:11;6.60;99.90
39847;DHT22;25517;52.422;10.782;2022-11-15T07:25:37;6.60;99.90
39847;DHT22;25517;52.422;10.782;2022-11-15T07:28:03;6.70;99.90
39847;DHT22;25517;52.422;10.782;2022-11-15T07:30:29;6.70;99.90
39847;DHT22;25517;52.422;10.782;2022-11-15T07:32:59;6.80;99.90
39847;DHT22;25517;52.422;10.782;2022-11-15T07:35:26;6.90;99.90
39847;DHT22;25517;52.422;10.782;2022-11-15T07:37:57;6.90;99.90
39847;DHT22;25517;52.422;10.782;2022-11-15T07:40:24;7.00;99.90
39847;DHT22;25517;52.422;10.782;2022-11-15T07:42:51;7.10;99.90
39847;DHT22;25517;52.422;10.782;2022-11-15T07:45:20;7.30;99.90
39847;DHT22;25517;52.422;10.782;2022-11-15T07:47:48;7.50;99.90
39847;DHT22;25517;52.422;10.782;2022-11-15T07:50:14;7.70;99.90
39847;DHT22;25517;52.422;10.782;2022-11-15T07:52:39;7.80;99.90
39847;DHT22;25517;52.422;10.782;2022-11-15T07:55:06;8.10;99.90
39847;DHT22;25517;52.422;10.782;2022-11-15T07:57:31;8.20;99.90
39847;DHT22;25517;52.422;10.782;2022-11-15T07:59:57;8.30;99.90
39847;DHT22;25517;52.422;10.782;2022-11-15T08:02:23;8.30;99.90
39847;DHT22;25517;52.422;10.782;2022-11-15T08:04:48;8.40;99.90
39847;DHT22;25517;52.422;10.782;2022-11-15T08:07:14;8.50;99.90
39847;DHT22;25517;52.422;10.782;2022-11-15T08:09:40;8.50;99.90
39847;DHT22;25517;52.422;10.782;2022-11-15T08:12:06;8.50;99.90
39847;DHT22;25517;52.422;10.782;2022-11-15T08:14:32;8.60;99.90
39847;DHT22;25517;52.422;10.782;2022-11-15T08:16:58;8.70;99.90
39847;DHT22;25517;52.422;10.782;2022-11-15T08:19:23;8.70;99.90
39847;DHT22;25517;52.422;10.782;2022-11-15T08:21:49;8.80;99.90
39847;DHT22;25517;52.422;10.782;2022-11-15T08:24:15;8.90;99.90
39847;DHT22;25517;52.422;10.782;2022-11-15T08:26:41;9.00;99.90
39847;DHT22;25517;52.422;10.782;2022-11-15T08:29:07;9.10;99.90
39847;DHT22;25517;52.422;10.782;2022-11-15T08:31:37;9.20;99.90
39847;DHT22;25517;52.422;10.782;2022-11-15T08:34:06;9.40;99.90
39847;DHT22;25517;52.422;10.782;2022-11-15T08:36:32;9.40;99.90
39847;DHT22;25517;52.422;10.782;2022-11-15T08:38:58;9.60;99.90
39847;DHT22;25517;52.422;10.782;2022-11-15T08:41:34;9.80;99.90
39847;DHT22;25517;52.422;10.782;2022-11-15T08:44:01;10.00;99.90
39847;DHT22;25517;52.422;10.782;2022-11-15T08:46:27;10.10;99.90
39847;DHT22;25517;52.422;10.782;2022-11-15T08:48:52;10.30;99.90
39847;DHT22;25517;52.422;10.782;2022-11-15T08:51:18;10.40;99.90
39847;DHT22;25517;52.422;10.782;2022-11-15T08:53:44;10.50;99.90
39847;DHT22;25517;52.422;10.782;2022-11-15T08:56:12;10.60;99.90
39847;DHT22;25517;52.422;10.782;2022-11-15T08:58:38;10.80;99.90
39847;DHT22;25517;52.422;10.782;2022-11-15T09:01:05;11.00;99.90
39847;DHT22;25517;52.422;10.782;2022-11-15T09:03:31;11.10;99.90
39847;DHT22;25517;52.422;10.782;2022-11-15T09:05:58;11.20;99.90
39847;DHT22;25517;52.422;10.782;2022-11-15T09:08:25;11.30;99.90
39847;DHT22;25517;52.422;10.782;2022-11-15T09:10:50;11.40;99.90
39847;DHT22;25517;52.422;10.782;2022-11-15T09:13:16;11.50;99.90
39847;DHT22;25517;52.422;10.782;2022-11-15T09:15:42;11.50;99.90
39847;DHT22;25517;52.422;10.782;2022-11-15T09:18:08;11.60;99.90
39847;DHT22;25517;52.422;10.782;2022-11-15T09:20:34;11.60;99.90
39847;DHT22;25517;52.422;10.782;2022-11-15T09:23:00;11.70;99.90
39847;DHT22;25517;52.422;10.782;2022-11-15T09:25:27;11.80;99.90
39847;DHT22;25517;52.422;10.782;2022-11-15T09:27:52;11.90;99.90
39847;DHT22;25517;52.422;10.782;2022-11-15T09:30:18;11.90;99.90
39847;DHT22;25517;52.422;10.782;2022-11-15T09:32:44;12.00;99.90
39847;DHT22;25517;52.422;10.782;2022-11-15T09:35:09;12.00;99.90
39847;DHT22;25517;52.422;10.782;2022-11-15T09:37:35;12.10;99.90
39847;DHT22;25517;52.422;10.782;2022-11-15T09:40:02;12.10;99.90
39847;DHT22;25517;52.422;10.782;2022-11-15T09:42:35;12.10;99.90
39847;DHT22;25517;52.422;10.782;2022-11-15T09:45:21;12.30;99.90
39847;DHT22;25517;52.422;10.782;2022-11-15T09:50:43;12.30;99.90
39847;DHT22;25517;52.422;10.782;2022-11-15T09:53:19;12.50;99.90
39847;DHT22;25517;52.422;10.782;2022-11-15T09:56:01;12.70;99.90
39847;DHT22;25517;52.422;10.782;2022-11-15T10:01:17;13.20;99.90
39847;DHT22;25517;52.422;10.782;2022-11-15T10:03:45;13.80;99.90
39847;DHT22;25517;52.422;10.782;2022-11-15T10:06:22;14.30;99.90
39847;DHT22;25517;52.422;10.782;2022-11-15T10:11:40;15.30;99.90
39847;DHT22;25517;52.422;10.782;2022-11-15T10:14:20;15.90;99.90
39847;DHT22;25517;52.422;10.782;2022-11-15T10:22:28;16.90;99.90
39847;DHT22;25517;52.422;10.782;2022-11-15T10:27:39;17.40;99.90
39847;DHT22;25517;52.422;10.782;2022-11-15T10:30:15;18.10;99.90
39847;DHT22;25517;52.422;10.782;2022-11-15T10:32:43;18.60;99.90
39847;DHT22;25517;52.422;10.782;2022-11-15T10:37:49;20.30;97.10
39847;DHT22;25517;52.422;10.782;2022-11-15T10:40:17;21.30;94.20
39847;DHT22;25517;52.422;10.782;2022-11-15T10:42:43;21.60;92.70
39847;DHT22;25517;52.422;10.782;2022-11-15T10:45:27;22.60;90.90
39847;DHT22;25517;52.422;10.782;2022-11-15T10:47:54;22.70;89.30
39847;DHT22;25517;52.422;10.782;2022-11-15T10:50:39;23.40;86.60
39847;DHT22;25517;52.422;10.782;2022-11-15T10:53:29;23.60;85.80
39847;DHT22;25517;52.422;10.782;2022-11-15T10:56:00;23.70;82.20
39847;DHT22;25517;52.422;10.782;2022-11-15T10:58:39;24.20;80.70
39847;DHT22;25517;52.422;10.782;2022-11-15T11:01:15;24.90;78.60
39847;DHT22;25517;52.422;10.782;2022-11-15T11:03:43;25.60;76.90
39847;DHT22;25517;52.422;10.782;2022-11-15T11:06:14;25.40;75.00
39847;DHT22;25517;52.422;10.782;2022-11-15T11:11:24;26.00;70.90
39847;DHT22;25517;52.422;10.782;2022-11-15T11:13:50;26.40;71.50
39847;DHT22;25517;52.422;10.782;2022-11-15T11:19:35;26.90;68.80
39847;DHT22;25517;52.422;10.782;2022-11-15T11:25:04;25.90;69.50
39847;DHT22;25517;52.422;10.782;2022-11-15T11:30:24;26.20;69.80
39847;DHT22;25517;52.422;10.782;2022-11-15T11:47:09;25.40;68.00
39847;DHT22;25517;52.422;10.782;2022-11-15T11:49:52;25.10;67.20
39847;DHT22;25517;52.422;10.782;2022-11-15T11:55:05;24.20;70.50
39847;DHT22;25517;52.422;10.782;2022-11-15T12:00:25;22.60;74.20
39847;DHT22;25517;52.422;10.782;2022-11-15T12:03:14;21.50;77.80
39847;DHT22;25517;52.422;10.782;2022-11-15T12:05:44;20.80;78.80
39847;DHT22;25517;52.422;10.782;2022-11-15T12:08:51;19.50;81.60
39847;DHT22;25517;52.422;10.782;2022-11-15T12:12:12;18.60;85.30
39847;DHT22;25517;52.422;10.782;2022-11-15T12:16:46;17.80;89.40
39847;DHT22;25517;52.422;10.782;2022-11-15T12:19:11;17.50;90.20
39847;DHT22;25517;52.422;10.782;2022-11-15T12:21:46;17.40;90.70
39847;DHT22;25517;52.422;10.782;2022-11-15T12:24:18;17.30;91.30
39847;DHT22;25517;52.422;10.782;2022-11-15T12:27:00;17.20;91.50
39847;DHT22;25517;52.422;10.782;2022-11-15T12:29:45;16.90;92.00
39847;DHT22;25517;52.422;10.782;2022-11-15T12:32:31;16.80;92.60
39847;DHT22;25517;52.422;10.782;2022-11-15T12:34:59;16.70;93.70
39847;DHT22;25517;52.422;10.782;2022-11-15T12:42:56;16.50;94.20
39847;DHT22;25517;52.422;10.782;2022-11-15T12:45:37;16.50;94.70
39847;DHT22;25517;52.422;10.782;2022-11-15T12:58:44;16.30;96.80
39847;DHT22;25517;52.422;10.782;2022-11-15T13:12:01;16.00;99.90
39847;DHT22;25517;52.422;10.782;2022-11-15T13:14:56;16.00;99.90
39847;DHT22;25517;52.422;10.782;2022-11-15T13:17:23;15.90;99.90
39847;DHT22;25517;52.422;10.782;2022-11-15T13:22:47;15.70;99.90
39847;DHT22;25517;52.422;10.782;2022-11-15T13:30:47;15.50;99.90
39847;DHT22;25517;52.422;10.782;2022-11-15T13:35:46;15.40;99.90
39847;DHT22;25517;52.422;10.782;2022-11-15T13:38:39;15.30;99.90
39847;DHT22;25517;52.422;10.782;2022-11-15T13:41:35;15.30;99.90
39847;DHT22;25517;52.422;10.782;2022-11-15T13:44:02;15.10;99.90
39847;DHT22;25517;52.422;10.782;2022-11-15T13:46:33;15.10;99.90
39847;DHT22;25517;52.422;10.782;2022-11-15T13:49:03;15.00;99.90
39847;DHT22;25517;52.422;10.782;2022-11-15T13:51:49;15.00;99.90
39847;DHT22;25517;52.422;10.782;2022-11-15T13:56:45;14.80;99.90
39847;DHT22;25517;52.422;10.782;2022-11-15T13:59:26;14.80;99.90
39847;DHT22;25517;52.422;10.782;2022-11-15T14:01:59;14.70;99.90
39847;DHT22;25517;52.422;10.782;2022-11-15T14:04:28;14.50;99.90
39847;DHT22;25517;52.422;10.782;2022-11-15T14:07:01;14.50;99.90
39847;DHT22;25517;52.422;10.782;2022-11-15T14:09:33;14.40;99.90
39847;DHT22;25517;52.422;10.782;2022-11-15T14:12:01;14.40;99.90
39847;DHT22;25517;52.422;10.782;2022-11-15T14:14:29;14.30;99.90
39847;DHT22;25517;52.422;10.782;2022-11-15T14:17:00;14.20;99.90
39847;DHT22;25517;52.422;10.782;2022-11-15T14:22:18;14.00;99.90
39847;DHT22;25517;52.422;10.782;2022-11-15T14:25:07;13.90;99.90
39847;DHT22;25517;52.422;10.782;2022-11-15T14:27:33;13.90;99.90
39847;DHT22;25517;52.422;10.782;2022-11-15T14:29:59;13.90;99.90
39847;DHT22;25517;52.422;10.782;2022-11-15T14:32:27;13.70;99.90
39847;DHT22;25517;52.422;10.782;2022-11-15T14:34:59;13.70;99.90
39847;DHT22;25517;52.422;10.782;2022-11-15T14:37:30;13.70;99.90
39847;DHT22;25517;52.422;10.782;2022-11-15T14:39:59;13.60;99.90
39847;DHT22;25517;52.422;10.782;2022-11-15T14:42:25;13.50;99.90
39847;DHT22;25517;52.422;10.782;2022-11-15T14:44:51;13.50;99.90
39847;DHT22;25517;52.422;10.782;2022-11-15T14:47:18;13.50;99.90
39847;DHT22;25517;52.422;10.782;2022-11-15T14:49:44;13.40;99.90
39847;DHT22;25517;52.422;10.782;2022-11-15T14:54:48;13.30;99.90
39847;DHT22;25517;52.422;10.782;2022-11-15T14:57:13;13.20;99.90
39847;DHT22;25517;52.422;10.782;2022-11-15T14:59:39;13.20;99.90
39847;DHT22;25517;52.422;10.782;2022-11-15T15:02:14;13.10;99.90
39847;DHT22;25517;52.422;10.782;2022-11-15T15:04:41;13.10;99.90
39847;DHT22;25517;52.422;10.782;2022-11-15T15:07:07;13.00;99.90
39847;DHT22;25517;52.422;10.782;2022-11-15T15:09:32;12.90;99.90
39847;DHT22;25517;52.422;10.782;2022-11-15T15:11:58;12.80;99.90
39847;DHT22;25517;52.422;10.782;2022-11-15T15:14:24;12.80;99.90
39847;DHT22;25517;52.422;10.782;2022-11-15T15:16:49;12.70;99.90
39847;DHT22;25517;52.422;10.782;2022-11-15T15:19:15;12.70;99.90
39847;DHT22;25517;52.422;10.782;2022-11-15T15:21:40;12.60;99.90
39847;DHT22;25517;52.422;10.782;2022-11-15T15:24:17;12.60;99.90
39847;DHT22;25517;52.422;10.782;2022-11-15T15:26:45;12.50;99.90
39847;DHT22;25517;52.422;10.782;2022-11-15T15:29:10;12.50;99.90
39847;DHT22;25517;52.422;10.782;2022-11-15T15:31:36;12.50;99.90
39847;DHT22;25517;52.422;10.782;2022-11-15T15:34:02;12.40;99.90
39847;DHT22;25517;52.422;10.782;2022-11-15T15:36:28;12.40;99.90
39847;DHT22;25517;52.422;10.782;2022-11-15T15:38:53;12.30;99.90
39847;DHT22;25517;52.422;10.782;2022-11-15T15:41:20;12.30;99.90
39847;DHT22;25517;52.422;10.782;2022-11-15T15:43:51;12.30;99.90
39847;DHT22;25517;52.422;10.782;2022-11-15T15:46:18;12.20;99.90
39847;DHT22;25517;52.422;10.782;2022-11-15T15:48:45;12.20;99.90
39847;DHT22;25517;52.422;10.782;2022-11-15T15:51:10;12.10;99.90
39847;DHT22;25517;52.422;10.782;2022-11-15T15:53:37;12.10;99.90
39847;DHT22;25517;52.422;10.782;2022-11-15T15:56:03;12.00;99.90
39847;DHT22;25517;52.422;10.782;2022-11-15T15:58:29;12.00;99.90
39847;DHT22;25517;52.422;10.782;2022-11-15T16:00:55;12.00;99.90
39847;DHT22;25517;52.422;10.782;2022-11-15T16:03:21;12.00;99.90
39847;DHT22;25517;52.422;10.782;2022-11-15T16:05:49;12.00;99.90
39847;DHT22;25517;52.422;10.782;2022-11-15T16:08:21;11.90;99.90
39847;DHT22;25517;52.422;10.782;2022-11-15T16:10:52;11.90;99.90
39847;DHT22;25517;52.422;10.782;2022-11-15T16:13:17;11.90;99.90
39847;DHT22;25517;52.422;10.782;2022-11-15T16:15:43;11.90;99.90
39847;DHT22;25517;52.422;10.782;2022-11-15T16:18:15;11.90;99.90
39847;DHT22;25517;52.422;10.782;2022-11-15T16:20:48;11.90;99.90
39847;DHT22;25517;52.422;10.782;2022-11-15T16:23:18;11.90;99.90
39847;DHT22;25517;52.422;10.782;2022-11-15T16:25:48;11.90;99.90
39847;DHT22;25517;52.422;10.782;2022-11-15T16:28:18;11.90;99.90
39847;DHT22;25517;52.422;10.782;2022-11-15T16:30:48;11.90;99.90
39847;DHT22;25517;52.422;10.782;2022-11-15T16:33:14;11.90;99.90
39847;DHT22;25517;52.422;10.782;2022-11-15T16:35:45;11.90;99.90
39847;DHT22;25517;52.422;10.782;2022-11-15T16:38:14;11.80;99.90
39847;DHT22;25517;52.422;10.782;2022-11-15T16:40:41;11.80;99.90
39847;DHT22;25517;52.422;10.782;2022-11-15T16:43:06;11.80;99.90
39847;DHT22;25517;52.422;10.782;2022-11-15T16:45:34;11.80;99.90
39847;DHT22;25517;52.422;10.782;2022-11-15T16:48:00;11.80;99.90
39847;DHT22;25517;52.422;10.782;2022-11-15T16:50:28;11.80;99.90
39847;DHT22;25517;52.422;10.782;2022-11-15T16:52:58;11.80;99.90
39847;DHT22;25517;52.422;10.782;2022-11-15T16:55:26;11.80;99.90
39847;DHT22;25517;52.422;10.782;2022-11-15T16:57:54;11.80;99.90
39847;DHT22;25517;52.422;10.782;2022-11-15T17:00:21;11.70;99.90
39847;DHT22;25517;52.422;10.782;2022-11-15T17:02:48;11.70;99.90
39847;DHT22;25517;52.422;10.782;2022-11-15T17:05:20;11.70;99.90
39847;DHT22;25517;52.422;10.782;2022-11-15T17:07:47;11.70;99.90
39847;DHT22;25517;52.422;10.782;2022-11-15T17:10:14;11.60;99.90
39847;DHT22;25517;52.422;10.782;2022-11-15T17:12:40;11.60;99.90
39847;DHT22;25517;52.422;10.782;2022-11-15T17:15:06;11.60;99.90
39847;DHT22;25517;52.422;10.782;2022-11-15T17:17:32;11.60;99.90
39847;DHT22;25517;52.422;10.782;2022-11-15T17:19:58;11.60;99.90
39847;DHT22;25517;52.422;10.782;2022-11-15T17:22:23;11.50;99.90
39847;DHT22;25517;52.422;10.782;2022-11-15T17:24:49;11.50;99.90
39847;DHT22;25517;52.422;10.782;2022-11-15T17:27:15;11.50;99.90
39847;DHT22;25517;52.422;10.782;2022-11-15T17:29:41;11.50;99.90
39847;DHT22;25517;52.422;10.782;2022-11-15T17:32:07;11.50;99.90
39847;DHT22;25517;52.422;10.782;2022-11-15T17:34:36;11.50;99.90
39847;DHT22;25517;52.422;10.782;2022-11-15T17:37:01;11.50;99.90
39847;DHT22;25517;52.422;10.782;2022-11-15T17:39:27;11.50;99.90
39847;DHT22;25517;52.422;10.782;2022-11-15T17:41:53;11.40;99.90
39847;DHT22;25517;52.422;10.782;2022-11-15T17:44:22;11.40;99.90
39847;DHT22;25517;52.422;10.782;2022-11-15T17:46:47;11.40;99.90
39847;DHT22;25517;52.422;10.782;2022-11-15T17:49:13;11.40;99.90